sensor_id;sensor_type;location;lat;lon;timestamp;P1;durP1;ratioP1;P2;durP2;ratioP2
74344;SDS011;62776;50.518;6.732;2022-08-21T00:01:35;14.77;;;7.38;;
74344;SDS011;62776;50.518;6.732;2022-08-21T00:04:22;11.48;;;6.10;;
74344;SDS011;62776;50.518;6.732;2022-08-21T00:07:08;10.43;;;6.10;;
74344;SDS011;62776;50.518;6.732;2022-08-21T00:09:55;10.88;;;6.43;;
74344;SDS011;62776;50.518;6.732;2022-08-21T00:12:41;9.35;;;5.80;;
74344;SDS011;62776;50.518;6.732;2022-08-21T00:15:29;9.57;;;5.60;;
74344;SDS011;62776;50.518;6.732;2022-08-21T00:18:16;8.77;;;5.13;;
74344;SDS011;62776;50.518;6.732;2022-08-21T00:21:02;9.20;;;5.40;;
74344;SDS011;62776;50.518;6.732;2022-08-21T00:23:49;12.75;;;6.45;;
74344;SDS011;62776;50.518;6.732;2022-08-21T00:26:35;11.98;;;6.25;;
74344;SDS011;62776;50.518;6.732;2022-08-21T00:29:21;13.60;;;6.85;;
74344;SDS011;62776;50.518;6.732;2022-08-21T00:32:07;9.07;;;5.78;;
74344;SDS011;62776;50.518;6.732;2022-08-21T00:34:53;11.55;;;6.60;;
74344;SDS011;62776;50.518;6.732;2022-08-21T00:37:40;10.32;;;6.15;;
74344;SDS011;62776;50.518;6.732;2022-08-21T00:40:29;12.52;;;6.93;;
74344;SDS011;62776;50.518;6.732;2022-08-21T00:43:20;9.38;;;6.75;;
74344;SDS011;62776;50.518;6.732;2022-08-21T00:46:08;11.27;;;7.03;;
74344;SDS011;62776;50.518;6.732;2022-08-21T00:48:54;15.82;;;6.95;;
74344;SDS011;62776;50.518;6.732;2022-08-21T00:51:51;12.98;;;6.72;;
74344;SDS011;62776;50.518;6.732;2022-08-21T00:54:40;13.02;;;8.13;;
74344;SDS011;62776;50.518;6.732;2022-08-21T00:57:29;12.63;;;7.28;;
74344;SDS011;62776;50.518;6.732;2022-08-21T01:00:21;12.13;;;6.65;;
74344;SDS011;62776;50.518;6.732;2022-08-21T01:03:16;11.90;;;6.63;;
74344;SDS011;62776;50.518;6.732;2022-08-21T01:06:05;11.30;;;6.65;;
74344;SDS011;62776;50.518;6.732;2022-08-21T01:08:52;13.82;;;8.40;;
74344;SDS011;62776;50.518;6.732;2022-08-21T01:11:38;9.70;;;6.97;;
74344;SDS011;62776;50.518;6.732;2022-08-21T01:14:27;18.77;;;8.90;;
74344;SDS011;62776;50.518;6.732;2022-08-21T01:17:15;15.10;;;8.77;;
74344;SDS011;62776;50.518;6.732;2022-08-21T01:20:05;10.00;;;7.32;;
74344;SDS011;62776;50.518;6.732;2022-08-21T01:22:53;12.90;;;8.98;;
74344;SDS011;62776;50.518;6.732;2022-08-21T01:25:39;12.55;;;7.47;;
74344;SDS011;62776;50.518;6.732;2022-08-21T01:28:25;11.27;;;7.47;;
74344;SDS011;62776;50.518;6.732;2022-08-21T01:31:15;10.30;;;8.05;;
74344;SDS011;62776;50.518;6.732;2022-08-21T01:34:07;15.18;;;10.07;;
74344;SDS011;62776;50.518;6.732;2022-08-21T01:36:54;11.48;;;8.38;;
74344;SDS011;62776;50.518;6.732;2022-08-21T01:39:41;11.32;;;7.93;;
74344;SDS011;62776;50.518;6.732;2022-08-21T01:42:27;12.70;;;6.97;;
74344;SDS011;62776;50.518;6.732;2022-08-21T01:45:14;15.35;;;8.55;;
74344;SDS011;62776;50.518;6.732;2022-08-21T01:48:01;11.68;;;9.10;;
74344;SDS011;62776;50.518;6.732;2022-08-21T01:50:47;16.95;;;9.23;;
74344;SDS011;62776;50.518;6.732;2022-08-21T01:53:34;13.23;;;10.43;;
74344;SDS011;62776;50.518;6.732;2022-08-21T01:56:21;11.32;;;8.27;;
74344;SDS011;62776;50.518;6.732;2022-08-21T01:59:08;15.52;;;10.88;;
74344;SDS011;62776;50.518;6.732;2022-08-21T02:01:55;15.55;;;9.48;;
74344;SDS011;62776;50.518;6.732;2022-08-21T02:04:42;17.08;;;11.25;;
74344;SDS011;62776;50.518;6.732;2022-08-21T02:07:28;14.27;;;12.05;;
74344;SDS011;62776;50.518;6.732;2022-08-21T02:10:29;12.80;;;10.57;;
74344;SDS011;62776;50.518;6.732;2022-08-21T02:13:16;16.45;;;11.18;;
74344;SDS011;62776;50.518;6.732;2022-08-21T02:16:03;13.55;;;10.38;;
74344;SDS011;62776;50.518;6.732;2022-08-21T02:18:49;19.38;;;12.48;;
74344;SDS011;62776;50.518;6.732;2022-08-21T02:21:35;11.85;;;9.45;;
74344;SDS011;62776;50.518;6.732;2022-08-21T02:24:21;12.60;;;9.23;;
74344;SDS011;62776;50.518;6.732;2022-08-21T02:27:07;14.48;;;10.18;;
74344;SDS011;62776;50.518;6.732;2022-08-21T02:29:55;12.80;;;9.23;;
74344;SDS011;62776;50.518;6.732;2022-08-21T02:32:42;14.55;;;9.20;;
74344;SDS011;62776;50.518;6.732;2022-08-21T02:35:28;10.27;;;8.40;;
74344;SDS011;62776;50.518;6.732;2022-08-21T02:38:15;18.63;;;10.15;;
74344;SDS011;62776;50.518;6.732;2022-08-21T02:41:12;15.73;;;9.25;;
74344;SDS011;62776;50.518;6.732;2022-08-21T02:44:00;13.77;;;9.38;;
74344;SDS011;62776;50.518;6.732;2022-08-21T02:46:46;12.43;;;9.73;;
74344;SDS011;62776;50.518;6.732;2022-08-21T02:49:32;11.48;;;8.35;;
74344;SDS011;62776;50.518;6.732;2022-08-21T02:52:18;14.50;;;8.63;;
74344;SDS011;62776;50.518;6.732;2022-08-21T02:55:04;20.15;;;11.57;;
74344;SDS011;62776;50.518;6.732;2022-08-21T02:57:50;17.58;;;12.02;;
74344;SDS011;62776;50.518;6.732;2022-08-21T03:00:37;14.40;;;10.18;;
74344;SDS011;62776;50.518;6.732;2022-08-21T03:03:24;14.60;;;9.75;;
74344;SDS011;62776;50.518;6.732;2022-08-21T03:06:13;13.27;;;10.52;;
74344;SDS011;62776;50.518;6.732;2022-08-21T03:09:00;16.50;;;10.77;;
74344;SDS011;62776;50.518;6.732;2022-08-21T03:11:46;17.35;;;13.80;;
74344;SDS011;62776;50.518;6.732;2022-08-21T03:14:32;14.48;;;11.20;;
74344;SDS011;62776;50.518;6.732;2022-08-21T03:17:18;15.13;;;11.95;;
74344;SDS011;62776;50.518;6.732;2022-08-21T03:20:05;11.23;;;9.73;;
74344;SDS011;62776;50.518;6.732;2022-08-21T03:22:52;15.50;;;10.52;;
74344;SDS011;62776;50.518;6.732;2022-08-21T03:25:40;15.10;;;10.80;;
74344;SDS011;62776;50.518;6.732;2022-08-21T03:28:26;15.15;;;11.75;;
74344;SDS011;62776;50.518;6.732;2022-08-21T03:31:13;20.58;;;15.15;;
74344;SDS011;62776;50.518;6.732;2022-08-21T03:33:59;18.08;;;13.90;;
74344;SDS011;62776;50.518;6.732;2022-08-21T03:36:45;18.33;;;13.43;;
74344;SDS011;62776;50.518;6.732;2022-08-21T03:39:32;14.60;;;12.98;;
74344;SDS011;62776;50.518;6.732;2022-08-21T03:42:18;14.27;;;12.73;;
74344;SDS011;62776;50.518;6.732;2022-08-21T03:45:05;15.95;;;12.85;;
74344;SDS011;62776;50.518;6.732;2022-08-21T03:47:59;17.25;;;12.95;;
74344;SDS011;62776;50.518;6.732;2022-08-21T03:50:47;18.90;;;13.80;;
74344;SDS011;62776;50.518;6.732;2022-08-21T03:53:34;22.88;;;14.70;;
74344;SDS011;62776;50.518;6.732;2022-08-21T03:56:21;20.52;;;15.98;;
74344;SDS011;62776;50.518;6.732;2022-08-21T03:59:07;18.10;;;14.55;;
74344;SDS011;62776;50.518;6.732;2022-08-21T04:01:58;19.23;;;13.95;;
74344;SDS011;62776;50.518;6.732;2022-08-21T04:04:51;17.80;;;14.48;;
74344;SDS011;62776;50.518;6.732;2022-08-21T04:07:37;19.98;;;10.27;;
74344;SDS011;62776;50.518;6.732;2022-08-21T04:10:24;14.13;;;12.63;;
74344;SDS011;62776;50.518;6.732;2022-08-21T04:13:12;13.80;;;11.45;;
74344;SDS011;62776;50.518;6.732;2022-08-21T04:15:59;15.50;;;11.98;;
74344;SDS011;62776;50.518;6.732;2022-08-21T04:18:45;17.60;;;13.88;;
74344;SDS011;62776;50.518;6.732;2022-08-21T04:21:31;16.85;;;10.93;;
74344;SDS011;62776;50.518;6.732;2022-08-21T04:24:18;17.90;;;12.40;;
74344;SDS011;62776;50.518;6.732;2022-08-21T04:27:04;15.00;;;12.68;;
74344;SDS011;62776;50.518;6.732;2022-08-21T04:29:50;16.15;;;12.52;;
74344;SDS011;62776;50.518;6.732;2022-08-21T04:32:37;21.40;;;12.57;;
74344;SDS011;62776;50.518;6.732;2022-08-21T04:35:23;15.68;;;13.07;;
74344;SDS011;62776;50.518;6.732;2022-08-21T04:38:11;18.80;;;15.23;;
74344;SDS011;62776;50.518;6.732;2022-08-21T04:40:57;21.33;;;13.95;;
74344;SDS011;62776;50.518;6.732;2022-08-21T04:43:43;15.20;;;12.95;;
74344;SDS011;62776;50.518;6.732;2022-08-21T04:46:29;20.55;;;14.98;;
74344;SDS011;62776;50.518;6.732;2022-08-21T04:49:15;24.85;;;18.52;;
74344;SDS011;62776;50.518;6.732;2022-08-21T04:52:02;16.63;;;14.77;;
74344;SDS011;62776;50.518;6.732;2022-08-21T04:54:49;20.20;;;18.02;;
74344;SDS011;62776;50.518;6.732;2022-08-21T04:57:37;18.92;;;14.07;;
74344;SDS011;62776;50.518;6.732;2022-08-21T05:00:24;25.58;;;18.83;;
74344;SDS011;62776;50.518;6.732;2022-08-21T05:03:11;22.27;;;18.40;;
74344;SDS011;62776;50.518;6.732;2022-08-21T05:06:00;16.50;;;14.80;;
74344;SDS011;62776;50.518;6.732;2022-08-21T05:08:48;20.85;;;15.90;;
74344;SDS011;62776;50.518;6.732;2022-08-21T05:11:37;19.33;;;14.23;;
74344;SDS011;62776;50.518;6.732;2022-08-21T05:14:23;18.42;;;13.00;;
74344;SDS011;62776;50.518;6.732;2022-08-21T05:17:12;17.20;;;12.15;;
74344;SDS011;62776;50.518;6.732;2022-08-21T05:19:58;15.77;;;11.07;;
74344;SDS011;62776;50.518;6.732;2022-08-21T05:22:44;16.25;;;11.07;;
74344;SDS011;62776;50.518;6.732;2022-08-21T05:25:31;15.98;;;10.73;;
74344;SDS011;62776;50.518;6.732;2022-08-21T05:28:17;17.25;;;12.07;;
74344;SDS011;62776;50.518;6.732;2022-08-21T05:31:03;16.17;;;10.70;;
74344;SDS011;62776;50.518;6.732;2022-08-21T05:33:49;10.02;;;9.00;;
74344;SDS011;62776;50.518;6.732;2022-08-21T05:36:35;16.83;;;12.32;;
74344;SDS011;62776;50.518;6.732;2022-08-21T05:39:21;14.48;;;12.65;;
74344;SDS011;62776;50.518;6.732;2022-08-21T05:42:08;17.75;;;12.40;;
74344;SDS011;62776;50.518;6.732;2022-08-21T05:44:54;14.18;;;11.15;;
74344;SDS011;62776;50.518;6.732;2022-08-21T05:47:40;17.27;;;12.35;;
74344;SDS011;62776;50.518;6.732;2022-08-21T05:50:26;19.27;;;13.38;;
74344;SDS011;62776;50.518;6.732;2022-08-21T05:53:13;16.00;;;11.43;;
74344;SDS011;62776;50.518;6.732;2022-08-21T05:56:01;14.05;;;9.88;;
74344;SDS011;62776;50.518;6.732;2022-08-21T05:58:48;16.58;;;12.00;;
74344;SDS011;62776;50.518;6.732;2022-08-21T06:01:34;13.52;;;10.20;;
74344;SDS011;62776;50.518;6.732;2022-08-21T06:04:20;12.27;;;9.63;;
74344;SDS011;62776;50.518;6.732;2022-08-21T06:07:06;9.50;;;6.55;;
74344;SDS011;62776;50.518;6.732;2022-08-21T06:09:53;10.88;;;6.60;;
74344;SDS011;62776;50.518;6.732;2022-08-21T06:12:39;10.45;;;6.78;;
74344;SDS011;62776;50.518;6.732;2022-08-21T06:15:25;9.23;;;5.90;;
74344;SDS011;62776;50.518;6.732;2022-08-21T06:18:11;11.00;;;4.95;;
74344;SDS011;62776;50.518;6.732;2022-08-21T06:20:58;9.35;;;5.30;;
74344;SDS011;62776;50.518;6.732;2022-08-21T06:23:44;9.85;;;4.50;;
74344;SDS011;62776;50.518;6.732;2022-08-21T06:26:31;11.32;;;4.82;;
74344;SDS011;62776;50.518;6.732;2022-08-21T06:29:17;8.63;;;4.00;;
74344;SDS011;62776;50.518;6.732;2022-08-21T06:32:05;8.07;;;4.15;;
74344;SDS011;62776;50.518;6.732;2022-08-21T06:34:55;8.32;;;3.45;;
74344;SDS011;62776;50.518;6.732;2022-08-21T06:37:41;5.90;;;3.55;;
74344;SDS011;62776;50.518;6.732;2022-08-21T06:40:27;7.30;;;4.22;;
74344;SDS011;62776;50.518;6.732;2022-08-21T06:43:15;12.35;;;3.50;;
74344;SDS011;62776;50.518;6.732;2022-08-21T06:46:02;9.07;;;3.20;;
74344;SDS011;62776;50.518;6.732;2022-08-21T06:48:48;13.02;;;4.25;;
74344;SDS011;62776;50.518;6.732;2022-08-21T06:51:34;5.60;;;3.25;;
74344;SDS011;62776;50.518;6.732;2022-08-21T06:54:20;7.82;;;3.03;;
74344;SDS011;62776;50.518;6.732;2022-08-21T06:57:06;10.50;;;2.80;;
74344;SDS011;62776;50.518;6.732;2022-08-21T06:59:52;9.18;;;3.47;;
74344;SDS011;62776;50.518;6.732;2022-08-21T07:02:39;6.95;;;2.35;;
74344;SDS011;62776;50.518;6.732;2022-08-21T07:05:25;8.07;;;3.33;;
74344;SDS011;62776;50.518;6.732;2022-08-21T07:08:13;5.68;;;2.58;;
74344;SDS011;62776;50.518;6.732;2022-08-21T07:11:00;8.50;;;3.38;;
74344;SDS011;62776;50.518;6.732;2022-08-21T07:13:49;10.02;;;2.80;;
74344;SDS011;62776;50.518;6.732;2022-08-21T07:16:38;5.40;;;2.60;;
74344;SDS011;62776;50.518;6.732;2022-08-21T07:19:24;5.82;;;2.50;;
74344;SDS011;62776;50.518;6.732;2022-08-21T07:22:18;7.25;;;2.80;;
74344;SDS011;62776;50.518;6.732;2022-08-21T07:25:06;7.95;;;2.60;;
74344;SDS011;62776;50.518;6.732;2022-08-21T07:27:52;8.27;;;2.97;;
74344;SDS011;62776;50.518;6.732;2022-08-21T07:30:38;6.55;;;2.40;;
74344;SDS011;62776;50.518;6.732;2022-08-21T07:33:25;6.50;;;2.75;;
74344;SDS011;62776;50.518;6.732;2022-08-21T07:36:12;6.18;;;3.05;;
74344;SDS011;62776;50.518;6.732;2022-08-21T07:38:58;7.45;;;3.05;;
74344;SDS011;62776;50.518;6.732;2022-08-21T07:41:45;7.38;;;2.75;;
74344;SDS011;62776;50.518;6.732;2022-08-21T07:44:31;4.85;;;2.63;;
74344;SDS011;62776;50.518;6.732;2022-08-21T07:47:19;10.60;;;2.78;;
74344;SDS011;62776;50.518;6.732;2022-08-21T07:50:05;6.38;;;2.95;;
74344;SDS011;62776;50.518;6.732;2022-08-21T07:52:52;6.38;;;2.83;;
74344;SDS011;62776;50.518;6.732;2022-08-21T07:55:38;6.18;;;2.70;;
74344;SDS011;62776;50.518;6.732;2022-08-21T07:58:24;10.55;;;3.05;;
74344;SDS011;62776;50.518;6.732;2022-08-21T08:01:10;7.90;;;2.85;;
74344;SDS011;62776;50.518;6.732;2022-08-21T08:03:57;8.50;;;2.22;;
74344;SDS011;62776;50.518;6.732;2022-08-21T08:06:43;6.93;;;2.65;;
74344;SDS011;62776;50.518;6.732;2022-08-21T08:09:29;11.27;;;3.20;;
74344;SDS011;62776;50.518;6.732;2022-08-21T08:12:15;7.00;;;2.40;;
74344;SDS011;62776;50.518;6.732;2022-08-21T08:15:02;6.72;;;2.90;;
74344;SDS011;62776;50.518;6.732;2022-08-21T08:17:51;6.22;;;2.78;;
74344;SDS011;62776;50.518;6.732;2022-08-21T08:20:37;8.55;;;3.08;;
74344;SDS011;62776;50.518;6.732;2022-08-21T08:23:23;6.70;;;3.00;;
74344;SDS011;62776;50.518;6.732;2022-08-21T08:26:10;9.43;;;2.88;;
74344;SDS011;62776;50.518;6.732;2022-08-21T08:28:56;7.82;;;2.90;;
74344;SDS011;62776;50.518;6.732;2022-08-21T08:31:42;8.10;;;2.88;;
74344;SDS011;62776;50.518;6.732;2022-08-21T08:34:28;6.35;;;2.63;;
74344;SDS011;62776;50.518;6.732;2022-08-21T08:37:15;8.05;;;2.42;;
74344;SDS011;62776;50.518;6.732;2022-08-21T08:40:01;6.38;;;2.55;;
74344;SDS011;62776;50.518;6.732;2022-08-21T08:42:47;6.55;;;2.65;;
74344;SDS011;62776;50.518;6.732;2022-08-21T08:45:36;5.13;;;2.83;;
74344;SDS011;62776;50.518;6.732;2022-08-21T08:48:43;7.03;;;3.50;;
74344;SDS011;62776;50.518;6.732;2022-08-21T08:54:34;7.45;;;2.25;;
74344;SDS011;62776;50.518;6.732;2022-08-21T08:57:24;7.57;;;2.85;;
74344;SDS011;62776;50.518;6.732;2022-08-21T09:00:11;6.28;;;2.17;;
74344;SDS011;62776;50.518;6.732;2022-08-21T09:03:02;9.10;;;2.75;;
74344;SDS011;62776;50.518;6.732;2022-08-21T09:09:20;6.43;;;2.58;;
74344;SDS011;62776;50.518;6.732;2022-08-21T09:12:33;7.70;;;2.70;;
74344;SDS011;62776;50.518;6.732;2022-08-21T09:15:32;5.30;;;2.50;;
74344;SDS011;62776;50.518;6.732;2022-08-21T09:27:56;6.93;;;2.70;;
74344;SDS011;62776;50.518;6.732;2022-08-21T09:30:42;6.88;;;2.70;;
74344;SDS011;62776;50.518;6.732;2022-08-21T09:33:28;8.10;;;3.08;;
74344;SDS011;62776;50.518;6.732;2022-08-21T09:36:25;6.13;;;2.55;;
74344;SDS011;62776;50.518;6.732;2022-08-21T09:39:28;8.32;;;3.05;;
74344;SDS011;62776;50.518;6.732;2022-08-21T09:42:31;7.78;;;2.90;;
74344;SDS011;62776;50.518;6.732;2022-08-21T09:45:18;5.32;;;2.55;;
74344;SDS011;62776;50.518;6.732;2022-08-21T09:48:08;4.47;;;2.25;;
74344;SDS011;62776;50.518;6.732;2022-08-21T09:51:06;6.25;;;2.60;;
74344;SDS011;62776;50.518;6.732;2022-08-21T09:54:00;10.75;;;2.88;;
74344;SDS011;62776;50.518;6.732;2022-08-21T09:57:00;6.47;;;2.42;;
74344;SDS011;62776;50.518;6.732;2022-08-21T10:00:25;5.47;;;2.50;;
74344;SDS011;62776;50.518;6.732;2022-08-21T10:03:17;6.05;;;2.33;;
74344;SDS011;62776;50.518;6.732;2022-08-21T10:06:07;5.60;;;2.10;;
74344;SDS011;62776;50.518;6.732;2022-08-21T10:09:05;6.68;;;2.20;;
74344;SDS011;62776;50.518;6.732;2022-08-21T10:15:22;8.95;;;3.15;;
74344;SDS011;62776;50.518;6.732;2022-08-21T10:21:30;6.63;;;2.50;;
74344;SDS011;62776;50.518;6.732;2022-08-21T10:24:25;7.35;;;2.90;;
74344;SDS011;62776;50.518;6.732;2022-08-21T10:40:02;5.32;;;2.65;;
74344;SDS011;62776;50.518;6.732;2022-08-21T10:46:12;3.28;;;2.17;;
74344;SDS011;62776;50.518;6.732;2022-08-21T10:49:18;6.47;;;2.45;;
74344;SDS011;62776;50.518;6.732;2022-08-21T10:55:21;5.18;;;2.13;;
74344;SDS011;62776;50.518;6.732;2022-08-21T11:04:45;6.10;;;2.20;;
74344;SDS011;62776;50.518;6.732;2022-08-21T11:07:47;5.10;;;2.35;;
74344;SDS011;62776;50.518;6.732;2022-08-21T11:10:42;4.20;;;2.13;;
74344;SDS011;62776;50.518;6.732;2022-08-21T11:13:43;4.55;;;2.53;;
74344;SDS011;62776;50.518;6.732;2022-08-21T11:16:40;7.43;;;2.50;;
74344;SDS011;62776;50.518;6.732;2022-08-21T11:19:33;6.40;;;2.10;;
74344;SDS011;62776;50.518;6.732;2022-08-21T11:25:34;3.58;;;2.20;;
74344;SDS011;62776;50.518;6.732;2022-08-21T11:28:30;3.88;;;1.85;;
74344;SDS011;62776;50.518;6.732;2022-08-21T11:31:43;4.70;;;2.58;;
74344;SDS011;62776;50.518;6.732;2022-08-21T11:37:42;4.78;;;1.85;;
74344;SDS011;62776;50.518;6.732;2022-08-21T11:43:49;3.78;;;1.67;;
74344;SDS011;62776;50.518;6.732;2022-08-21T11:47:15;4.25;;;1.90;;
74344;SDS011;62776;50.518;6.732;2022-08-21T11:53:08;4.80;;;1.92;;
74344;SDS011;62776;50.518;6.732;2022-08-21T11:56:20;4.82;;;1.65;;
74344;SDS011;62776;50.518;6.732;2022-08-21T11:59:13;3.80;;;2.10;;
74344;SDS011;62776;50.518;6.732;2022-08-21T12:02:12;4.30;;;1.70;;
74344;SDS011;62776;50.518;6.732;2022-08-21T12:05:05;4.13;;;1.73;;
74344;SDS011;62776;50.518;6.732;2022-08-21T12:08:01;3.85;;;2.10;;
74344;SDS011;62776;50.518;6.732;2022-08-21T12:16:52;4.28;;;1.90;;
74344;SDS011;62776;50.518;6.732;2022-08-21T12:23:18;4.25;;;1.45;;
74344;SDS011;62776;50.518;6.732;2022-08-21T12:29:12;4.57;;;2.08;;
74344;SDS011;62776;50.518;6.732;2022-08-21T12:38:06;2.53;;;1.60;;
74344;SDS011;62776;50.518;6.732;2022-08-21T12:41:04;4.57;;;1.55;;
74344;SDS011;62776;50.518;6.732;2022-08-21T12:43:57;2.80;;;1.65;;
74344;SDS011;62776;50.518;6.732;2022-08-21T12:46:48;2.85;;;1.67;;
74344;SDS011;62776;50.518;6.732;2022-08-21T12:49:51;3.67;;;1.67;;
74344;SDS011;62776;50.518;6.732;2022-08-21T12:52:55;2.17;;;1.23;;
74344;SDS011;62776;50.518;6.732;2022-08-21T12:56:10;2.50;;;1.50;;
74344;SDS011;62776;50.518;6.732;2022-08-21T12:59:02;1.43;;;1.20;;
74344;SDS011;62776;50.518;6.732;2022-08-21T13:01:50;3.45;;;1.40;;
74344;SDS011;62776;50.518;6.732;2022-08-21T13:04:40;3.22;;;1.63;;
74344;SDS011;62776;50.518;6.732;2022-08-21T13:07:29;1.90;;;1.08;;
74344;SDS011;62776;50.518;6.732;2022-08-21T13:10:22;4.15;;;1.95;;
74344;SDS011;62776;50.518;6.732;2022-08-21T13:13:16;2.05;;;1.27;;
74344;SDS011;62776;50.518;6.732;2022-08-21T13:16:08;3.05;;;1.30;;
74344;SDS011;62776;50.518;6.732;2022-08-21T13:19:02;2.97;;;1.48;;
74344;SDS011;62776;50.518;6.732;2022-08-21T13:21:51;4.20;;;2.05;;
74344;SDS011;62776;50.518;6.732;2022-08-21T13:24:38;2.35;;;1.40;;
74344;SDS011;62776;50.518;6.732;2022-08-21T13:27:26;2.38;;;1.50;;
74344;SDS011;62776;50.518;6.732;2022-08-21T13:30:19;1.88;;;1.30;;
74344;SDS011;62776;50.518;6.732;2022-08-21T13:36:11;2.78;;;1.75;;
74344;SDS011;62776;50.518;6.732;2022-08-21T13:39:04;2.03;;;1.40;;
74344;SDS011;62776;50.518;6.732;2022-08-21T13:42:01;2.83;;;1.40;;
74344;SDS011;62776;50.518;6.732;2022-08-21T13:44:50;4.57;;;1.42;;
74344;SDS011;62776;50.518;6.732;2022-08-21T13:47:39;4.15;;;1.55;;
74344;SDS011;62776;50.518;6.732;2022-08-21T13:50:25;2.53;;;1.33;;
74344;SDS011;62776;50.518;6.732;2022-08-21T13:53:29;4.22;;;1.40;;
74344;SDS011;62776;50.518;6.732;2022-08-21T13:56:26;4.10;;;1.48;;
74344;SDS011;62776;50.518;6.732;2022-08-21T13:59:22;1.65;;;1.10;;
74344;SDS011;62776;50.518;6.732;2022-08-21T14:05:01;2.08;;;1.30;;
74344;SDS011;62776;50.518;6.732;2022-08-21T14:07:49;2.88;;;1.60;;
74344;SDS011;62776;50.518;6.732;2022-08-21T14:10:43;3.33;;;1.63;;
74344;SDS011;62776;50.518;6.732;2022-08-21T14:16:44;3.22;;;1.58;;
74344;SDS011;62776;50.518;6.732;2022-08-21T14:19:42;5.07;;;1.95;;
74344;SDS011;62776;50.518;6.732;2022-08-21T14:28:23;3.30;;;1.60;;
74344;SDS011;62776;50.518;6.732;2022-08-21T14:31:27;4.97;;;2.28;;
74344;SDS011;62776;50.518;6.732;2022-08-21T14:34:15;2.30;;;1.70;;
74344;SDS011;62776;50.518;6.732;2022-08-21T14:37:02;3.65;;;1.80;;
74344;SDS011;62776;50.518;6.732;2022-08-21T14:39:48;6.78;;;1.98;;
74344;SDS011;62776;50.518;6.732;2022-08-21T14:42:34;3.60;;;1.50;;
74344;SDS011;62776;50.518;6.732;2022-08-21T14:45:29;4.20;;;2.13;;
74344;SDS011;62776;50.518;6.732;2022-08-21T14:48:16;6.30;;;1.98;;
74344;SDS011;62776;50.518;6.732;2022-08-21T14:51:02;4.78;;;1.73;;
74344;SDS011;62776;50.518;6.732;2022-08-21T14:53:48;5.68;;;2.17;;
74344;SDS011;62776;50.518;6.732;2022-08-21T14:56:34;4.55;;;1.73;;
74344;SDS011;62776;50.518;6.732;2022-08-21T14:59:21;4.40;;;2.00;;
74344;SDS011;62776;50.518;6.732;2022-08-21T15:02:08;3.80;;;1.52;;
74344;SDS011;62776;50.518;6.732;2022-08-21T15:04:54;5.90;;;2.28;;
74344;SDS011;62776;50.518;6.732;2022-08-21T15:07:40;4.10;;;1.95;;
74344;SDS011;62776;50.518;6.732;2022-08-21T15:10:27;9.38;;;2.10;;
74344;SDS011;62776;50.518;6.732;2022-08-21T15:13:14;7.90;;;2.08;;
74344;SDS011;62776;50.518;6.732;2022-08-21T15:16:01;7.40;;;2.05;;
74344;SDS011;62776;50.518;6.732;2022-08-21T15:18:48;4.72;;;2.20;;
74344;SDS011;62776;50.518;6.732;2022-08-21T15:21:34;5.30;;;1.80;;
74344;SDS011;62776;50.518;6.732;2022-08-21T15:24:20;4.65;;;2.22;;
74344;SDS011;62776;50.518;6.732;2022-08-21T15:27:07;9.15;;;2.88;;
74344;SDS011;62776;50.518;6.732;2022-08-21T15:29:55;4.63;;;2.08;;
74344;SDS011;62776;50.518;6.732;2022-08-21T15:32:41;4.13;;;1.95;;
74344;SDS011;62776;50.518;6.732;2022-08-21T15:35:27;5.68;;;2.00;;
74344;SDS011;62776;50.518;6.732;2022-08-21T15:38:14;6.05;;;1.88;;
74344;SDS011;62776;50.518;6.732;2022-08-21T15:41:01;4.95;;;2.08;;
74344;SDS011;62776;50.518;6.732;2022-08-21T15:43:49;4.60;;;2.65;;
74344;SDS011;62776;50.518;6.732;2022-08-21T15:46:38;7.15;;;2.38;;
74344;SDS011;62776;50.518;6.732;2022-08-21T15:49:25;5.88;;;2.40;;
74344;SDS011;62776;50.518;6.732;2022-08-21T15:52:12;3.13;;;1.88;;
74344;SDS011;62776;50.518;6.732;2022-08-21T15:54:59;4.72;;;1.90;;
74344;SDS011;62776;50.518;6.732;2022-08-21T15:57:46;5.85;;;2.15;;
74344;SDS011;62776;50.518;6.732;2022-08-21T16:00:35;5.72;;;1.88;;
74344;SDS011;62776;50.518;6.732;2022-08-21T16:03:21;5.15;;;2.35;;
74344;SDS011;62776;50.518;6.732;2022-08-21T16:06:07;7.05;;;2.80;;
74344;SDS011;62776;50.518;6.732;2022-08-21T16:08:53;12.68;;;2.40;;
74344;SDS011;62776;50.518;6.732;2022-08-21T16:11:39;5.10;;;2.20;;
74344;SDS011;62776;50.518;6.732;2022-08-21T16:14:26;6.05;;;2.33;;
74344;SDS011;62776;50.518;6.732;2022-08-21T16:17:15;4.30;;;2.15;;
74344;SDS011;62776;50.518;6.732;2022-08-21T16:20:06;5.30;;;2.00;;
74344;SDS011;62776;50.518;6.732;2022-08-21T16:22:55;4.82;;;2.22;;
74344;SDS011;62776;50.518;6.732;2022-08-21T16:25:42;7.50;;;2.38;;
74344;SDS011;62776;50.518;6.732;2022-08-21T16:28:29;4.30;;;1.85;;
74344;SDS011;62776;50.518;6.732;2022-08-21T16:31:16;4.60;;;1.92;;
74344;SDS011;62776;50.518;6.732;2022-08-21T16:34:02;3.42;;;1.92;;
74344;SDS011;62776;50.518;6.732;2022-08-21T16:36:48;4.70;;;1.60;;
74344;SDS011;62776;50.518;6.732;2022-08-21T16:39:34;3.78;;;1.90;;
74344;SDS011;62776;50.518;6.732;2022-08-21T16:42:21;5.43;;;1.80;;
74344;SDS011;62776;50.518;6.732;2022-08-21T16:45:11;4.13;;;1.98;;
74344;SDS011;62776;50.518;6.732;2022-08-21T16:47:59;4.88;;;1.88;;
74344;SDS011;62776;50.518;6.732;2022-08-21T16:50:48;4.32;;;1.80;;
74344;SDS011;62776;50.518;6.732;2022-08-21T16:53:34;3.75;;;1.90;;
74344;SDS011;62776;50.518;6.732;2022-08-21T16:56:20;3.92;;;2.60;;
74344;SDS011;62776;50.518;6.732;2022-08-21T16:59:06;6.95;;;2.22;;
74344;SDS011;62776;50.518;6.732;2022-08-21T17:01:54;5.78;;;2.13;;
74344;SDS011;62776;50.518;6.732;2022-08-21T17:04:41;5.13;;;1.67;;
74344;SDS011;62776;50.518;6.732;2022-08-21T17:07:27;3.45;;;1.90;;
74344;SDS011;62776;50.518;6.732;2022-08-21T17:10:14;5.32;;;2.30;;
74344;SDS011;62776;50.518;6.732;2022-08-21T17:13:03;6.28;;;1.77;;
74344;SDS011;62776;50.518;6.732;2022-08-21T17:15:49;7.20;;;2.30;;
74344;SDS011;62776;50.518;6.732;2022-08-21T17:18:35;4.70;;;1.73;;
74344;SDS011;62776;50.518;6.732;2022-08-21T17:21:21;6.40;;;2.45;;
74344;SDS011;62776;50.518;6.732;2022-08-21T17:24:08;7.10;;;1.83;;
74344;SDS011;62776;50.518;6.732;2022-08-21T17:26:54;3.97;;;2.03;;
74344;SDS011;62776;50.518;6.732;2022-08-21T17:29:41;6.15;;;2.15;;
74344;SDS011;62776;50.518;6.732;2022-08-21T17:32:27;9.65;;;2.35;;
74344;SDS011;62776;50.518;6.732;2022-08-21T17:35:15;7.07;;;2.60;;
74344;SDS011;62776;50.518;6.732;2022-08-21T17:38:02;5.97;;;2.22;;
74344;SDS011;62776;50.518;6.732;2022-08-21T17:40:48;7.97;;;2.38;;
74344;SDS011;62776;50.518;6.732;2022-08-21T17:43:35;7.50;;;2.10;;
74344;SDS011;62776;50.518;6.732;2022-08-21T17:46:23;6.30;;;2.58;;
74344;SDS011;62776;50.518;6.732;2022-08-21T17:49:12;7.72;;;2.30;;
74344;SDS011;62776;50.518;6.732;2022-08-21T17:51:59;7.10;;;2.10;;
74344;SDS011;62776;50.518;6.732;2022-08-21T17:54:46;8.18;;;2.38;;
74344;SDS011;62776;50.518;6.732;2022-08-21T17:57:33;4.63;;;2.40;;
74344;SDS011;62776;50.518;6.732;2022-08-21T18:00:20;6.60;;;2.22;;
74344;SDS011;62776;50.518;6.732;2022-08-21T18:03:08;6.78;;;2.83;;
74344;SDS011;62776;50.518;6.732;2022-08-21T18:06:02;4.68;;;2.33;;
74344;SDS011;62776;50.518;6.732;2022-08-21T18:08:48;4.50;;;2.38;;
74344;SDS011;62776;50.518;6.732;2022-08-21T18:11:34;6.18;;;2.22;;
74344;SDS011;62776;50.518;6.732;2022-08-21T18:14:23;5.40;;;2.20;;
74344;SDS011;62776;50.518;6.732;2022-08-21T18:17:17;8.60;;;2.50;;
74344;SDS011;62776;50.518;6.732;2022-08-21T18:20:06;6.50;;;2.25;;
74344;SDS011;62776;50.518;6.732;2022-08-21T18:22:53;7.38;;;2.35;;
74344;SDS011;62776;50.518;6.732;2022-08-21T18:25:40;4.85;;;1.80;;